sensor_id;sensor_type;location;lat;lon;timestamp;P1;durP1;ratioP1;P2;durP2;ratioP2
45392;SDS011;31129;44.810;10.334;2023-04-06T00:00:45;13.38;;;7.38;;
45392;SDS011;31129;44.810;10.334;2023-04-06T00:03:12;11.23;;;5.95;;
45392;SDS011;31129;44.810;10.334;2023-04-06T00:05:38;12.70;;;6.07;;
45392;SDS011;31129;44.810;10.334;2023-04-06T00:08:03;12.95;;;6.60;;
45392;SDS011;31129;44.810;10.334;2023-04-06T00:10:29;8.48;;;6.25;;
45392;SDS011;31129;44.810;10.334;2023-04-06T00:12:54;11.68;;;7.20;;
45392;SDS011;31129;44.810;10.334;2023-04-06T00:15:21;10.10;;;6.68;;
45392;SDS011;31129;44.810;10.334;2023-04-06T00:17:47;14.98;;;7.30;;
45392;SDS011;31129;44.810;10.334;2023-04-06T00:20:12;13.70;;;7.85;;
45392;SDS011;31129;44.810;10.334;2023-04-06T00:22:38;13.93;;;6.63;;
45392;SDS011;31129;44.810;10.334;2023-04-06T00:25:03;13.05;;;6.30;;
45392;SDS011;31129;44.810;10.334;2023-04-06T00:27:29;12.32;;;6.82;;
45392;SDS011;31129;44.810;10.334;2023-04-06T00:29:54;10.13;;;6.15;;
45392;SDS011;31129;44.810;10.334;2023-04-06T00:32:23;11.90;;;7.25;;
45392;SDS011;31129;44.810;10.334;2023-04-06T00:37:14;12.68;;;5.93;;
45392;SDS011;31129;44.810;10.334;2023-04-06T00:39:39;10.55;;;6.07;;
45392;SDS011;31129;44.810;10.334;2023-04-06T00:42:10;13.45;;;6.18;;
45392;SDS011;31129;44.810;10.334;2023-04-06T00:44:43;13.75;;;7.10;;
45392;SDS011;31129;44.810;10.334;2023-04-06T00:47:09;11.73;;;6.57;;
45392;SDS011;31129;44.810;10.334;2023-04-06T00:49:34;11.55;;;5.93;;
45392;SDS011;31129;44.810;10.334;2023-04-06T00:52:00;8.90;;;5.88;;
45392;SDS011;31129;44.810;10.334;2023-04-06T00:54:26;10.65;;;5.70;;
45392;SDS011;31129;44.810;10.334;2023-04-06T00:56:52;14.32;;;5.90;;
45392;SDS011;31129;44.810;10.334;2023-04-06T00:59:18;9.10;;;5.72;;
45392;SDS011;31129;44.810;10.334;2023-04-06T01:01:44;9.32;;;5.60;;
45392;SDS011;31129;44.810;10.334;2023-04-06T01:04:27;9.63;;;5.40;;
45392;SDS011;31129;44.810;10.334;2023-04-06T01:06:57;10.95;;;5.43;;
45392;SDS011;31129;44.810;10.334;2023-04-06T01:09:29;9.88;;;6.10;;
45392;SDS011;31129;44.810;10.334;2023-04-06T01:12:01;10.30;;;5.88;;
45392;SDS011;31129;44.810;10.334;2023-04-06T01:14:29;9.32;;;5.47;;
45392;SDS011;31129;44.810;10.334;2023-04-06T01:16:58;12.32;;;5.40;;
45392;SDS011;31129;44.810;10.334;2023-04-06T01:19:30;9.98;;;5.47;;
45392;SDS011;31129;44.810;10.334;2023-04-06T01:21:56;10.73;;;5.25;;
45392;SDS011;31129;44.810;10.334;2023-04-06T01:24:41;7.82;;;5.28;;
45392;SDS011;31129;44.810;10.334;2023-04-06T01:27:10;9.10;;;5.20;;
45392;SDS011;31129;44.810;10.334;2023-04-06T01:29:49;8.93;;;5.53;;
45392;SDS011;31129;44.810;10.334;2023-04-06T01:32:24;10.02;;;5.07;;
45392;SDS011;31129;44.810;10.334;2023-04-06T01:34:51;8.77;;;5.57;;
45392;SDS011;31129;44.810;10.334;2023-04-06T01:37:16;6.75;;;4.95;;
45392;SDS011;31129;44.810;10.334;2023-04-06T01:39:42;7.80;;;4.80;;
45392;SDS011;31129;44.810;10.334;2023-04-06T01:42:11;8.68;;;4.72;;
45392;SDS011;31129;44.810;10.334;2023-04-06T01:44:38;6.20;;;4.38;;
45392;SDS011;31129;44.810;10.334;2023-04-06T01:47:10;6.70;;;4.53;;
45392;SDS011;31129;44.810;10.334;2023-04-06T01:49:36;10.75;;;4.78;;
45392;SDS011;31129;44.810;10.334;2023-04-06T01:52:02;9.35;;;4.07;;
45392;SDS011;31129;44.810;10.334;2023-04-06T01:54:27;8.90;;;4.65;;
45392;SDS011;31129;44.810;10.334;2023-04-06T01:57:10;12.27;;;5.15;;
45392;SDS011;31129;44.810;10.334;2023-04-06T01:59:42;11.10;;;5.65;;
45392;SDS011;31129;44.810;10.334;2023-04-06T02:02:20;11.25;;;5.78;;
45392;SDS011;31129;44.810;10.334;2023-04-06T02:04:55;9.52;;;5.47;;
45392;SDS011;31129;44.810;10.334;2023-04-06T02:07:22;10.60;;;6.07;;
45392;SDS011;31129;44.810;10.334;2023-04-06T02:09:47;13.95;;;6.28;;
45392;SDS011;31129;44.810;10.334;2023-04-06T02:12:23;14.90;;;5.32;;
45392;SDS011;31129;44.810;10.334;2023-04-06T02:14:49;8.77;;;4.60;;
45392;SDS011;31129;44.810;10.334;2023-04-06T02:17:15;9.63;;;5.55;;
45392;SDS011;31129;44.810;10.334;2023-04-06T02:19:40;16.75;;;5.95;;
45392;SDS011;31129;44.810;10.334;2023-04-06T02:22:06;12.18;;;5.90;;
45392;SDS011;31129;44.810;10.334;2023-04-06T02:24:31;9.13;;;5.60;;
45392;SDS011;31129;44.810;10.334;2023-04-06T02:26:57;10.30;;;5.38;;
45392;SDS011;31129;44.810;10.334;2023-04-06T02:29:22;9.48;;;4.93;;
45392;SDS011;31129;44.810;10.334;2023-04-06T02:31:48;11.68;;;5.45;;
45392;SDS011;31129;44.810;10.334;2023-04-06T02:34:14;10.10;;;5.78;;
45392;SDS011;31129;44.810;10.334;2023-04-06T02:36:45;10.77;;;6.10;;
45392;SDS011;31129;44.810;10.334;2023-04-06T02:39:13;10.80;;;5.95;;
45392;SDS011;31129;44.810;10.334;2023-04-06T02:41:39;10.23;;;6.07;;
45392;SDS011;31129;44.810;10.334;2023-04-06T02:44:08;10.63;;;5.88;;
45392;SDS011;31129;44.810;10.334;2023-04-06T02:46:40;10.15;;;6.13;;
45392;SDS011;31129;44.810;10.334;2023-04-06T02:49:06;14.65;;;5.75;;
45392;SDS011;31129;44.810;10.334;2023-04-06T02:51:33;17.67;;;5.95;;
45392;SDS011;31129;44.810;10.334;2023-04-06T02:54:10;8.80;;;5.20;;
45392;SDS011;31129;44.810;10.334;2023-04-06T02:56:36;9.40;;;5.15;;
45392;SDS011;31129;44.810;10.334;2023-04-06T02:59:01;14.73;;;7.38;;
45392;SDS011;31129;44.810;10.334;2023-04-06T03:01:33;11.32;;;5.47;;
45392;SDS011;31129;44.810;10.334;2023-04-06T03:04:02;7.85;;;5.47;;
45392;SDS011;31129;44.810;10.334;2023-04-06T03:06:28;8.65;;;5.53;;
45392;SDS011;31129;44.810;10.334;2023-04-06T03:08:59;10.55;;;5.82;;
45392;SDS011;31129;44.810;10.334;2023-04-06T03:11:29;16.02;;;5.75;;
45392;SDS011;31129;44.810;10.334;2023-04-06T03:13:55;11.73;;;6.95;;
45392;SDS011;31129;44.810;10.334;2023-04-06T03:16:20;14.88;;;6.80;;
45392;SDS011;31129;44.810;10.334;2023-04-06T03:18:46;13.15;;;6.35;;
45392;SDS011;31129;44.810;10.334;2023-04-06T03:21:13;10.88;;;6.22;;
45392;SDS011;31129;44.810;10.334;2023-04-06T03:23:46;14.02;;;6.07;;
45392;SDS011;31129;44.810;10.334;2023-04-06T03:26:14;12.70;;;6.82;;
45392;SDS011;31129;44.810;10.334;2023-04-06T03:28:40;17.52;;;6.20;;
45392;SDS011;31129;44.810;10.334;2023-04-06T03:31:06;12.73;;;6.10;;
45392;SDS011;31129;44.810;10.334;2023-04-06T03:33:41;10.30;;;6.10;;
45392;SDS011;31129;44.810;10.334;2023-04-06T03:36:10;15.32;;;6.38;;
45392;SDS011;31129;44.810;10.334;2023-04-06T03:38:39;10.32;;;5.93;;
45392;SDS011;31129;44.810;10.334;2023-04-06T03:41:09;10.35;;;5.55;;
45392;SDS011;31129;44.810;10.334;2023-04-06T03:43:36;11.55;;;5.65;;
45392;SDS011;31129;44.810;10.334;2023-04-06T03:46:02;15.35;;;6.32;;
45392;SDS011;31129;44.810;10.334;2023-04-06T03:48:27;10.80;;;6.07;;
45392;SDS011;31129;44.810;10.334;2023-04-06T03:50:53;11.45;;;5.75;;
45392;SDS011;31129;44.810;10.334;2023-04-06T03:53:18;13.07;;;6.65;;
45392;SDS011;31129;44.810;10.334;2023-04-06T03:55:44;8.23;;;5.25;;
45392;SDS011;31129;44.810;10.334;2023-04-06T03:58:09;15.50;;;6.80;;
45392;SDS011;31129;44.810;10.334;2023-04-06T04:00:37;13.77;;;6.28;;
45392;SDS011;31129;44.810;10.334;2023-04-06T04:03:03;11.25;;;6.03;;
45392;SDS011;31129;44.810;10.334;2023-04-06T04:05:28;10.70;;;6.22;;
45392;SDS011;31129;44.810;10.334;2023-04-06T04:07:54;10.52;;;5.80;;
45392;SDS011;31129;44.810;10.334;2023-04-06T04:10:23;10.13;;;6.60;;
45392;SDS011;31129;44.810;10.334;2023-04-06T04:12:49;8.75;;;5.50;;
45392;SDS011;31129;44.810;10.334;2023-04-06T04:15:14;11.73;;;6.78;;
45392;SDS011;31129;44.810;10.334;2023-04-06T04:17:40;15.32;;;5.45;;
45392;SDS011;31129;44.810;10.334;2023-04-06T04:20:11;13.07;;;5.72;;
45392;SDS011;31129;44.810;10.334;2023-04-06T04:22:37;11.90;;;5.35;;
45392;SDS011;31129;44.810;10.334;2023-04-06T04:25:03;8.85;;;4.78;;
45392;SDS011;31129;44.810;10.334;2023-04-06T04:27:30;11.85;;;5.40;;
45392;SDS011;31129;44.810;10.334;2023-04-06T04:29:55;10.88;;;5.30;;
45392;SDS011;31129;44.810;10.334;2023-04-06T04:32:21;11.82;;;4.82;;
45392;SDS011;31129;44.810;10.334;2023-04-06T04:34:46;12.63;;;5.35;;
45392;SDS011;31129;44.810;10.334;2023-04-06T04:37:29;10.85;;;5.03;;
45392;SDS011;31129;44.810;10.334;2023-04-06T04:39:55;8.07;;;4.47;;
45392;SDS011;31129;44.810;10.334;2023-04-06T04:42:20;13.70;;;4.93;;
45392;SDS011;31129;44.810;10.334;2023-04-06T04:44:50;11.35;;;5.55;;
45392;SDS011;31129;44.810;10.334;2023-04-06T04:47:25;6.47;;;4.43;;
45392;SDS011;31129;44.810;10.334;2023-04-06T04:49:51;9.07;;;4.35;;
45392;SDS011;31129;44.810;10.334;2023-04-06T04:52:21;17.67;;;4.25;;
45392;SDS011;31129;44.810;10.334;2023-04-06T04:54:54;6.25;;;3.88;;
45392;SDS011;31129;44.810;10.334;2023-04-06T04:57:25;7.57;;;4.25;;
45392;SDS011;31129;44.810;10.334;2023-04-06T04:59:50;7.55;;;4.90;;
45392;SDS011;31129;44.810;10.334;2023-04-06T05:02:17;10.80;;;4.20;;
45392;SDS011;31129;44.810;10.334;2023-04-06T05:04:52;9.60;;;4.30;;
45392;SDS011;31129;44.810;10.334;2023-04-06T05:07:23;13.65;;;4.53;;
45392;SDS011;31129;44.810;10.334;2023-04-06T05:09:50;10.50;;;4.07;;
45392;SDS011;31129;44.810;10.334;2023-04-06T05:12:17;13.88;;;4.95;;
45392;SDS011;31129;44.810;10.334;2023-04-06T05:14:53;9.52;;;3.55;;
45392;SDS011;31129;44.810;10.334;2023-04-06T05:17:20;13.10;;;5.70;;
45392;SDS011;31129;44.810;10.334;2023-04-06T05:19:46;6.95;;;3.30;;
45392;SDS011;31129;44.810;10.334;2023-04-06T05:24:45;8.30;;;3.45;;
45392;SDS011;31129;44.810;10.334;2023-04-06T05:27:11;9.48;;;4.00;;
45392;SDS011;31129;44.810;10.334;2023-04-06T05:29:37;11.75;;;3.67;;
45392;SDS011;31129;44.810;10.334;2023-04-06T05:32:02;12.90;;;4.03;;
45392;SDS011;31129;44.810;10.334;2023-04-06T05:34:28;9.80;;;4.28;;
45392;SDS011;31129;44.810;10.334;2023-04-06T05:36:54;10.38;;;4.00;;
45392;SDS011;31129;44.810;10.334;2023-04-06T05:39:23;9.93;;;3.80;;
45392;SDS011;31129;44.810;10.334;2023-04-06T05:41:50;10.35;;;3.85;;
45392;SDS011;31129;44.810;10.334;2023-04-06T05:44:25;10.70;;;4.10;;
45392;SDS011;31129;44.810;10.334;2023-04-06T05:47:00;7.88;;;4.03;;
45392;SDS011;31129;44.810;10.334;2023-04-06T05:49:26;8.13;;;3.90;;
45392;SDS011;31129;44.810;10.334;2023-04-06T05:51:52;16.27;;;4.47;;
45392;SDS011;31129;44.810;10.334;2023-04-06T05:54:17;11.45;;;4.70;;
45392;SDS011;31129;44.810;10.334;2023-04-06T05:56:43;11.63;;;4.75;;
45392;SDS011;31129;44.810;10.334;2023-04-06T05:59:10;12.90;;;4.90;;
45392;SDS011;31129;44.810;10.334;2023-04-06T06:01:36;17.63;;;5.93;;
45392;SDS011;31129;44.810;10.334;2023-04-06T06:04:01;13.38;;;6.07;;
45392;SDS011;31129;44.810;10.334;2023-04-06T06:06:29;27.23;;;9.48;;
45392;SDS011;31129;44.810;10.334;2023-04-06T06:09:12;49.33;;;13.18;;
45392;SDS011;31129;44.810;10.334;2023-04-06T06:11:44;51.22;;;14.50;;
45392;SDS011;31129;44.810;10.334;2023-04-06T06:14:12;35.92;;;11.77;;
45392;SDS011;31129;44.810;10.334;2023-04-06T06:16:42;29.63;;;9.60;;
45392;SDS011;31129;44.810;10.334;2023-04-06T06:19:10;29.17;;;9.90;;
45392;SDS011;31129;44.810;10.334;2023-04-06T06:21:36;22.15;;;7.32;;
45392;SDS011;31129;44.810;10.334;2023-04-06T06:24:03;23.77;;;7.63;;
45392;SDS011;31129;44.810;10.334;2023-04-06T06:26:29;13.93;;;6.90;;
45392;SDS011;31129;44.810;10.334;2023-04-06T06:28:55;15.57;;;6.80;;
45392;SDS011;31129;44.810;10.334;2023-04-06T06:31:21;19.55;;;6.53;;
45392;SDS011;31129;44.810;10.334;2023-04-06T06:33:48;19.13;;;5.82;;
45392;SDS011;31129;44.810;10.334;2023-04-06T06:38:42;11.13;;;5.38;;
45392;SDS011;31129;44.810;10.334;2023-04-06T06:41:07;9.00;;;4.95;;
45392;SDS011;31129;44.810;10.334;2023-04-06T06:43:35;10.40;;;5.53;;
45392;SDS011;31129;44.810;10.334;2023-04-06T06:46:05;12.77;;;5.88;;
45392;SDS011;31129;44.810;10.334;2023-04-06T06:48:31;13.20;;;6.75;;
45392;SDS011;31129;44.810;10.334;2023-04-06T06:50:57;12.98;;;5.65;;
45392;SDS011;31129;44.810;10.334;2023-04-06T06:53:22;18.13;;;6.05;;
45392;SDS011;31129;44.810;10.334;2023-04-06T06:55:49;12.70;;;5.97;;
45392;SDS011;31129;44.810;10.334;2023-04-06T06:58:14;11.35;;;5.95;;
45392;SDS011;31129;44.810;10.334;2023-04-06T07:00:40;17.00;;;6.22;;
45392;SDS011;31129;44.810;10.334;2023-04-06T07:03:06;11.48;;;5.68;;
45392;SDS011;31129;44.810;10.334;2023-04-06T07:05:32;14.30;;;6.05;;
45392;SDS011;31129;44.810;10.334;2023-04-06T07:07:58;14.43;;;5.78;;
45392;SDS011;31129;44.810;10.334;2023-04-06T07:10:24;12.93;;;5.45;;
45392;SDS011;31129;44.810;10.334;2023-04-06T07:12:50;12.50;;;5.70;;
45392;SDS011;31129;44.810;10.334;2023-04-06T07:15:16;12.63;;;5.90;;
45392;SDS011;31129;44.810;10.334;2023-04-06T07:17:43;14.73;;;5.93;;
45392;SDS011;31129;44.810;10.334;2023-04-06T07:20:11;12.90;;;5.60;;
45392;SDS011;31129;44.810;10.334;2023-04-06T07:22:40;13.25;;;5.70;;
45392;SDS011;31129;44.810;10.334;2023-04-06T07:25:07;14.32;;;5.93;;
45392;SDS011;31129;44.810;10.334;2023-04-06T07:27:33;12.45;;;6.25;;
45392;SDS011;31129;44.810;10.334;2023-04-06T07:29:59;9.82;;;6.07;;
45392;SDS011;31129;44.810;10.334;2023-04-06T07:32:25;11.95;;;6.30;;
45392;SDS011;31129;44.810;10.334;2023-04-06T07:34:51;11.25;;;6.10;;
45392;SDS011;31129;44.810;10.334;2023-04-06T07:37:17;11.23;;;5.60;;
45392;SDS011;31129;44.810;10.334;2023-04-06T07:39:43;12.63;;;6.05;;
45392;SDS011;31129;44.810;10.334;2023-04-06T07:42:09;9.63;;;5.18;;
45392;SDS011;31129;44.810;10.334;2023-04-06T07:44:36;11.68;;;5.88;;
45392;SDS011;31129;44.810;10.334;2023-04-06T07:47:01;9.73;;;5.20;;
45392;SDS011;31129;44.810;10.334;2023-04-06T07:51:55;13.63;;;5.55;;
45392;SDS011;31129;44.810;10.334;2023-04-06T07:54:21;13.63;;;6.00;;
45392;SDS011;31129;44.810;10.334;2023-04-06T07:56:46;15.35;;;6.32;;
45392;SDS011;31129;44.810;10.334;2023-04-06T07:59:12;16.83;;;6.78;;
45392;SDS011;31129;44.810;10.334;2023-04-06T08:01:38;16.83;;;6.13;;
45392;SDS011;31129;44.810;10.334;2023-04-06T08:04:04;20.67;;;6.78;;
45392;SDS011;31129;44.810;10.334;2023-04-06T08:06:30;11.02;;;5.85;;
45392;SDS011;31129;44.810;10.334;2023-04-06T08:08:55;16.80;;;6.40;;
45392;SDS011;31129;44.810;10.334;2023-04-06T08:11:21;13.32;;;6.07;;
45392;SDS011;31129;44.810;10.334;2023-04-06T08:13:46;17.08;;;6.30;;
45392;SDS011;31129;44.810;10.334;2023-04-06T08:16:11;10.27;;;5.68;;
45392;SDS011;31129;44.810;10.334;2023-04-06T08:18:37;17.38;;;7.07;;
45392;SDS011;31129;44.810;10.334;2023-04-06T08:21:05;18.48;;;6.45;;
45392;SDS011;31129;44.810;10.334;2023-04-06T08:23:31;13.02;;;5.78;;
45392;SDS011;31129;44.810;10.334;2023-04-06T08:25:56;10.55;;;5.75;;
45392;SDS011;31129;44.810;10.334;2023-04-06T08:28:22;12.55;;;5.35;;
45392;SDS011;31129;44.810;10.334;2023-04-06T08:30:47;17.55;;;6.72;;
45392;SDS011;31129;44.810;10.334;2023-04-06T08:33:13;14.13;;;4.85;;
45392;SDS011;31129;44.810;10.334;2023-04-06T08:35:39;8.75;;;4.22;;
45392;SDS011;31129;44.810;10.334;2023-04-06T08:38:05;13.65;;;4.55;;
45392;SDS011;31129;44.810;10.334;2023-04-06T08:40:35;7.93;;;4.95;;
45392;SDS011;31129;44.810;10.334;2023-04-06T08:43:02;11.63;;;4.55;;
45392;SDS011;31129;44.810;10.334;2023-04-06T08:45:33;8.57;;;4.45;;
45392;SDS011;31129;44.810;10.334;2023-04-06T08:47:59;7.63;;;4.38;;
45392;SDS011;31129;44.810;10.334;2023-04-06T08:50:26;12.73;;;4.43;;
45392;SDS011;31129;44.810;10.334;2023-04-06T08:52:54;8.13;;;4.05;;
45392;SDS011;31129;44.810;10.334;2023-04-06T08:55:22;10.82;;;4.25;;
45392;SDS011;31129;44.810;10.334;2023-04-06T08:57:48;7.15;;;3.58;;
45392;SDS011;31129;44.810;10.334;2023-04-06T09:00:14;5.82;;;3.92;;
45392;SDS011;31129;44.810;10.334;2023-04-06T09:02:41;9.88;;;4.15;;
45392;SDS011;31129;44.810;10.334;2023-04-06T09:05:08;10.40;;;3.75;;
45392;SDS011;31129;44.810;10.334;2023-04-06T09:07:38;8.35;;;3.72;;
45392;SDS011;31129;44.810;10.334;2023-04-06T09:10:04;19.48;;;6.57;;
45392;SDS011;31129;44.810;10.334;2023-04-06T09:12:31;6.05;;;3.13;;
45392;SDS011;31129;44.810;10.334;2023-04-06T09:14:57;6.32;;;2.72;;
45392;SDS011;31129;44.810;10.334;2023-04-06T09:17:27;3.75;;;2.55;;
45392;SDS011;31129;44.810;10.334;2023-04-06T09:19:55;4.45;;;2.88;;
45392;SDS011;31129;44.810;10.334;2023-04-06T09:22:21;4.35;;;2.95;;
45392;SDS011;31129;44.810;10.334;2023-04-06T09:24:50;4.60;;;2.78;;
45392;SDS011;31129;44.810;10.334;2023-04-06T09:27:30;4.60;;;2.67;;
45392;SDS011;31129;44.810;10.334;2023-04-06T09:30:03;4.57;;;2.72;;
45392;SDS011;31129;44.810;10.334;2023-04-06T09:32:45;4.75;;;2.88;;
45392;SDS011;31129;44.810;10.334;2023-04-06T09:35:11;4.57;;;2.88;;
45392;SDS011;31129;44.810;10.334;2023-04-06T09:37:37;9.65;;;3.30;;
45392;SDS011;31129;44.810;10.334;2023-04-06T09:40:04;4.50;;;2.75;;
45392;SDS011;31129;44.810;10.334;2023-04-06T09:42:33;5.25;;;2.80;;
45392;SDS011;31129;44.810;10.334;2023-04-06T09:45:00;8.93;;;3.15;;
45392;SDS011;31129;44.810;10.334;2023-04-06T09:47:25;6.13;;;3.05;;
45392;SDS011;31129;44.810;10.334;2023-04-06T09:50:01;6.40;;;2.42;;
45392;SDS011;31129;44.810;10.334;2023-04-06T09:52:33;5.20;;;2.47;;
45392;SDS011;31129;44.810;10.334;2023-04-06T09:55:03;5.30;;;2.50;;
45392;SDS011;31129;44.810;10.334;2023-04-06T10:00:27;4.18;;;3.00;;
45392;SDS011;31129;44.810;10.334;2023-04-06T10:03:10;4.35;;;3.03;;
45392;SDS011;31129;44.810;10.334;2023-04-06T10:08:11;6.22;;;3.00;;
45392;SDS011;31129;44.810;10.334;2023-04-06T10:10:37;8.05;;;3.10;;
45392;SDS011;31129;44.810;10.334;2023-04-06T10:13:03;5.28;;;3.10;;
45392;SDS011;31129;44.810;10.334;2023-04-06T10:15:29;6.25;;;3.40;;
45392;SDS011;31129;44.810;10.334;2023-04-06T10:17:56;5.35;;;2.85;;
45392;SDS011;31129;44.810;10.334;2023-04-06T10:22:53;4.05;;;2.97;;
45392;SDS011;31129;44.810;10.334;2023-04-06T10:25:30;3.65;;;2.47;;
45392;SDS011;31129;44.810;10.334;2023-04-06T10:28:06;5.65;;;2.83;;
45392;SDS011;31129;44.810;10.334;2023-04-06T10:30:33;5.13;;;2.95;;
45392;SDS011;31129;44.810;10.334;2023-04-06T10:33:00;4.90;;;3.13;;
45392;SDS011;31129;44.810;10.334;2023-04-06T10:35:36;6.68;;;3.45;;
45392;SDS011;31129;44.810;10.334;2023-04-06T10:38:05;8.65;;;3.25;;
45392;SDS011;31129;44.810;10.334;2023-04-06T10:40:31;5.63;;;3.58;;
45392;SDS011;31129;44.810;10.334;2023-04-06T10:43:06;6.55;;;3.30;;
45392;SDS011;31129;44.810;10.334;2023-04-06T10:45:35;6.07;;;3.30;;
45392;SDS011;31129;44.810;10.334;2023-04-06T10:48:12;4.45;;;3.08;;
45392;SDS011;31129;44.810;10.334;2023-04-06T10:50:38;5.93;;;3.22;;
45392;SDS011;31129;44.810;10.334;2023-04-06T10:53:05;7.80;;;3.60;;
45392;SDS011;31129;44.810;10.334;2023-04-06T10:55:31;7.90;;;3.55;;
45392;SDS011;31129;44.810;10.334;2023-04-06T10:57:57;5.20;;;3.20;;
45392;SDS011;31129;44.810;10.334;2023-04-06T11:00:23;7.78;;;3.47;;
45392;SDS011;31129;44.810;10.334;2023-04-06T11:02:49;8.48;;;4.28;;
45392;SDS011;31129;44.810;10.334;2023-04-06T11:05:15;8.15;;;3.70;;
45392;SDS011;31129;44.810;10.334;2023-04-06T11:07:40;7.63;;;3.65;;
45392;SDS011;31129;44.810;10.334;2023-04-06T11:10:07;6.32;;;3.60;;
45392;SDS011;31129;44.810;10.334;2023-04-06T11:12:33;7.20;;;3.72;;
45392;SDS011;31129;44.810;10.334;2023-04-06T11:15:00;6.05;;;3.50;;
45392;SDS011;31129;44.810;10.334;2023-04-06T11:17:38;5.25;;;3.85;;
45392;SDS011;31129;44.810;10.334;2023-04-06T11:20:09;5.72;;;3.75;;
45392;SDS011;31129;44.810;10.334;2023-04-06T11:22:35;6.88;;;4.35;;
45392;SDS011;31129;44.810;10.334;2023-04-06T11:25:04;7.65;;;4.18;;
45392;SDS011;31129;44.810;10.334;2023-04-06T11:27:31;5.68;;;3.90;;
45392;SDS011;31129;44.810;10.334;2023-04-06T11:29:59;7.68;;;4.05;;
45392;SDS011;31129;44.810;10.334;2023-04-06T11:32:25;7.00;;;4.60;;
45392;SDS011;31129;44.810;10.334;2023-04-06T11:34:51;9.93;;;3.97;;
45392;SDS011;31129;44.810;10.334;2023-04-06T11:37:17;6.85;;;4.28;;
45392;SDS011;31129;44.810;10.334;2023-04-06T11:39:49;5.25;;;4.40;;
45392;SDS011;31129;44.810;10.334;2023-04-06T11:42:23;6.57;;;4.50;;
45392;SDS011;31129;44.810;10.334;2023-04-06T11:44:50;8.25;;;4.88;;
45392;SDS011;31129;44.810;10.334;2023-04-06T11:47:19;8.18;;;4.80;;
45392;SDS011;31129;44.810;10.334;2023-04-06T11:49:45;12.35;;;5.10;;
45392;SDS011;31129;44.810;10.334;2023-04-06T11:52:18;8.80;;;5.32;;
45392;SDS011;31129;44.810;10.334;2023-04-06T11:54:45;8.65;;;5.15;;
45392;SDS011;31129;44.810;10.334;2023-04-06T11:57:12;11.02;;;5.63;;
45392;SDS011;31129;44.810;10.334;2023-04-06T11:59:37;11.68;;;5.85;;
45392;SDS011;31129;44.810;10.334;2023-04-06T12:02:03;10.05;;;5.82;;
45392;SDS011;31129;44.810;10.334;2023-04-06T12:04:29;9.50;;;5.30;;
45392;SDS011;31129;44.810;10.334;2023-04-06T12:06:54;6.68;;;5.22;;
45392;SDS011;31129;44.810;10.334;2023-04-06T12:09:20;9.65;;;5.82;;
45392;SDS011;31129;44.810;10.334;2023-04-06T12:11:46;8.60;;;5.97;;
45392;SDS011;31129;44.810;10.334;2023-04-06T12:14:12;7.10;;;5.60;;
45392;SDS011;31129;44.810;10.334;2023-04-06T12:16:37;16.90;;;6.72;;
45392;SDS011;31129;44.810;10.334;2023-04-06T12:19:03;9.90;;;6.20;;
45392;SDS011;31129;44.810;10.334;2023-04-06T12:21:29;8.35;;;5.97;;
45392;SDS011;31129;44.810;10.334;2023-04-06T12:23:56;12.70;;;6.97;;
45392;SDS011;31129;44.810;10.334;2023-04-06T12:26:22;10.93;;;7.03;;
45392;SDS011;31129;44.810;10.334;2023-04-06T12:28:48;7.43;;;5.75;;
45392;SDS011;31129;44.810;10.334;2023-04-06T12:31:17;11.20;;;6.72;;
45392;SDS011;31129;44.810;10.334;2023-04-06T12:33:46;9.27;;;6.10;;
45392;SDS011;31129;44.810;10.334;2023-04-06T12:38:41;13.52;;;6.63;;
45392;SDS011;31129;44.810;10.334;2023-04-06T12:41:07;15.43;;;6.53;;
45392;SDS011;31129;44.810;10.334;2023-04-06T12:43:32;9.40;;;6.30;;
45392;SDS011;31129;44.810;10.334;2023-04-06T12:45:58;11.88;;;6.55;;
45392;SDS011;31129;44.810;10.334;2023-04-06T12:48:25;7.15;;;6.07;;
45392;SDS011;31129;44.810;10.334;2023-04-06T12:50:59;13.37;;;6.53;;
45392;SDS011;31129;44.810;10.334;2023-04-06T12:53:26;8.50;;;6.15;;
45392;SDS011;31129;44.810;10.334;2023-04-06T12:55:52;11.55;;;6.88;;
45392;SDS011;31129;44.810;10.334;2023-04-06T12:58:19;11.63;;;6.55;;
45392;SDS011;31129;44.810;10.334;2023-04-06T13:00:45;11.02;;;5.93;;
45392;SDS011;31129;44.810;10.334;2023-04-06T13:03:11;7.75;;;5.82;;
45392;SDS011;31129;44.810;10.334;2023-04-06T13:05:43;8.02;;;5.85;;
45392;SDS011;31129;44.810;10.334;2023-04-06T13:08:09;8.90;;;6.55;;
45392;SDS011;31129;44.810;10.334;2023-04-06T13:10:35;10.00;;;7.10;;
45392;SDS011;31129;44.810;10.334;2023-04-06T13:13:00;10.77;;;5.95;;
45392;SDS011;31129;44.810;10.334;2023-04-06T13:15:26;10.68;;;6.03;;
45392;SDS011;31129;44.810;10.334;2023-04-06T13:17:51;8.27;;;6.32;;
45392;SDS011;31129;44.810;10.334;2023-04-06T13:20:16;11.45;;;6.20;;
45392;SDS011;31129;44.810;10.334;2023-04-06T13:22:42;10.95;;;6.95;;
45392;SDS011;31129;44.810;10.334;2023-04-06T13:25:08;9.20;;;6.70;;
45392;SDS011;31129;44.810;10.334;2023-04-06T13:27:33;12.13;;;7.25;;
45392;SDS011;31129;44.810;10.334;2023-04-06T13:30:00;15.65;;;6.78;;
45392;SDS011;31129;44.810;10.334;2023-04-06T13:32:27;11.02;;;7.05;;
45392;SDS011;31129;44.810;10.334;2023-04-06T13:34:56;10.27;;;6.70;;
45392;SDS011;31129;44.810;10.334;2023-04-06T13:37:21;9.85;;;6.88;;
45392;SDS011;31129;44.810;10.334;2023-04-06T13:39:47;9.73;;;7.15;;
45392;SDS011;31129;44.810;10.334;2023-04-06T13:42:12;11.30;;;7.07;;
45392;SDS011;31129;44.810;10.334;2023-04-06T13:44:38;10.00;;;7.07;;
45392;SDS011;31129;44.810;10.334;2023-04-06T13:47:03;10.15;;;7.65;;
45392;SDS011;31129;44.810;10.334;2023-04-06T13:49:29;10.35;;;7.22;;
45392;SDS011;31129;44.810;10.334;2023-04-06T13:51:55;9.07;;;7.10;;
45392;SDS011;31129;44.810;10.334;2023-04-06T13:54:20;9.10;;;6.43;;
45392;SDS011;31129;44.810;10.334;2023-04-06T13:56:46;8.82;;;6.25;;
45392;SDS011;31129;44.810;10.334;2023-04-06T14:04:07;10.18;;;6.82;;
45392;SDS011;31129;44.810;10.334;2023-04-06T14:06:33;12.27;;;6.82;;
45392;SDS011;31129;44.810;10.334;2023-04-06T14:08:58;9.40;;;7.03;;
45392;SDS011;31129;44.810;10.334;2023-04-06T14:11:24;9.45;;;7.07;;
45392;SDS011;31129;44.810;10.334;2023-04-06T14:13:49;9.52;;;6.75;;
45392;SDS011;31129;44.810;10.334;2023-04-06T14:16:14;9.13;;;6.78;;
45392;SDS011;31129;44.810;10.334;2023-04-06T14:18:40;14.73;;;6.60;;
45392;SDS011;31129;44.810;10.334;2023-04-06T14:21:05;8.63;;;6.20;;
45392;SDS011;31129;44.810;10.334;2023-04-06T14:23:31;8.05;;;6.90;;
45392;SDS011;31129;44.810;10.334;2023-04-06T14:26:01;14.23;;;7.15;;
45392;SDS011;31129;44.810;10.334;2023-04-06T14:28:30;12.05;;;6.95;;
45392;SDS011;31129;44.810;10.334;2023-04-06T14:30:58;11.35;;;7.32;;
45392;SDS011;31129;44.810;10.334;2023-04-06T14:33:29;10.80;;;7.00;;
45392;SDS011;31129;44.810;10.334;2023-04-06T14:35:55;8.40;;;6.18;;
45392;SDS011;31129;44.810;10.334;2023-04-06T14:38:21;13.25;;;6.53;;
45392;SDS011;31129;44.810;10.334;2023-04-06T14:40:47;9.38;;;6.35;;
45392;SDS011;31129;44.810;10.334;2023-04-06T14:43:13;8.10;;;5.97;;
45392;SDS011;31129;44.810;10.334;2023-04-06T14:45:38;8.90;;;6.25;;
45392;SDS011;31129;44.810;10.334;2023-04-06T14:48:04;8.52;;;5.60;;
45392;SDS011;31129;44.810;10.334;2023-04-06T14:50:31;8.75;;;5.65;;
45392;SDS011;31129;44.810;10.334;2023-04-06T14:52:58;10.27;;;5.78;;